Time;durP1;ratioP1;P1;durP2;ratioP2;P2;SDS_P1;SDS_P2;PMS_P1;PMS_P2;Temp;Humidity;BMP_temperature;BMP_pressure;BME280_temperature;BME280_humidity;BME280_pressure;Samples;Min_cycle;Max_cycle;Signal;HPM_P1;HPM_P2
2023/07/12 00:01:45;;;;;;;2.28;1.10;;;18.70;99.90;;;;;;5028690;28;20048;-93
2023/07/12 00:04:16;;;;;;;2.55;1.30;;;18.70;99.90;;;;;;5004855;28;20044;-94
2023/07/12 00:06:42;;;;;;;2.72;1.00;;;18.70;99.90;;;;;;5018190;28;20076;-94
2023/07/12 00:09:19;;;;;;;3.10;1.20;;;18.60;99.90;;;;;;5038610;28;20467;-93
2023/07/12 00:11:54;;;;;;;1.35;1.00;;;18.70;99.90;;;;;;5033390;28;20074;-94
2023/07/12 00:14:20;;;;;;;2.35;1.00;;;18.60;99.90;;;;;;5038397;28;20052;-93
2023/07/12 00:16:46;;;;;;;2.17;1.15;;;18.70;99.90;;;;;;5018577;28;20114;-94
2023/07/12 00:19:18;;;;;;;1.38;1.00;;;18.70;99.90;;;;;;5036917;28;20067;-94
2023/07/12 00:21:44;;;;;;;2.08;1.00;;;18.60;99.90;;;;;;5033832;28;20042;-93
2023/07/12 00:24:13;;;;;;;2.65;1.10;;;18.60;99.90;;;;;;5050968;28;20126;-94
2023/07/12 00:26:39;;;;;;;3.10;0.95;;;18.60;99.90;;;;;;5031945;28;20072;-93
2023/07/12 00:29:06;;;;;;;2.25;1.23;;;18.50;99.90;;;;;;5017902;28;20072;-94
2023/07/12 00:31:47;;;;;;;2.40;1.20;;;18.60;99.90;;;;;;5033278;28;20086;-93
2023/07/12 00:34:19;;;;;;;3.00;1.23;;;18.50;99.90;;;;;;5022148;28;20626;-93
2023/07/12 00:36:45;;;;;;;1.58;1.10;;;18.50;99.90;;;;;;5036387;28;20090;-92
2023/07/12 00:39:12;;;;;;;2.95;1.30;;;18.40;99.90;;;;;;5037354;28;20052;-94
2023/07/12 00:44:59;;;;;;;1.98;1.10;;;18.40;99.90;;;;;;5044781;28;20093;-94
2023/07/12 00:47:32;;;;;;;2.45;1.05;;;18.50;99.90;;;;;;5031177;28;20045;-94
2023/07/12 00:50:01;;;;;;;3.08;1.30;;;18.40;99.90;;;;;;5029310;28;20032;-94
2023/07/12 00:52:33;;;;;;;1.65;1.00;;;18.50;99.90;;;;;;5037451;28;20479;-94
2023/07/12 00:55:34;;;;;;;2.88;1.20;;;18.40;99.90;;;;;;5042182;28;20047;-94
2023/07/12 00:58:05;;;;;;;1.98;1.10;;;18.40;99.90;;;;;;5033356;28;20047;-94
2023/07/12 01:00:42;;;;;;;3.75;1.27;;;18.40;99.90;;;;;;5041516;28;20048;-95
2023/07/12 01:03:14;;;;;;;1.33;1.10;;;18.40;99.90;;;;;;5017932;28;20080;-94
2023/07/12 01:05:48;;;;;;;1.88;1.10;;;18.30;99.90;;;;;;5042864;28;20475;-95
2023/07/12 01:08:21;;;;;;;2.05;1.20;;;18.50;99.90;;;;;;5026802;28;20123;-95
2023/07/12 01:11:07;;;;;;;1.27;0.88;;;18.40;99.90;;;;;;5041110;28;20040;-94
2023/07/12 01:13:41;;;;;;;4.72;1.27;;;18.30;99.90;;;;;;5040828;28;20075;-94
2023/07/12 01:16:10;;;;;;;3.20;1.10;;;18.40;99.90;;;;;;5050920;28;20068;-94
2023/07/12 01:18:42;;;;;;;2.60;1.13;;;18.30;99.90;;;;;;5039737;28;20132;-94
2023/07/12 01:21:37;;;;;;;2.00;1.20;;;18.30;99.90;;;;;;5035137;28;20483;-94
2023/07/12 01:24:18;;;;;;;1.85;1.20;;;18.30;99.90;;;;;;5030472;28;20044;-94
2023/07/12 01:26:56;;;;;;;3.83;1.42;;;18.20;99.90;;;;;;5038727;28;20074;-94
2023/07/12 01:29:33;;;;;;;3.10;1.60;;;18.20;99.90;;;;;;5034061;28;20036;-94
2023/07/12 01:32:11;;;;;;;2.60;1.13;;;18.20;99.90;;;;;;5031119;28;20072;-95
2023/07/12 01:34:40;;;;;;;2.03;1.10;;;18.20;99.90;;;;;;5022948;28;20088;-95
2023/07/12 01:37:09;;;;;;;3.30;1.20;;;18.10;99.90;;;;;;5034589;28;20040;-94
2023/07/12 01:39:44;;;;;;;1.98;1.23;;;18.10;99.90;;;;;;5038567;28;20148;-94
2023/07/12 01:42:18;;;;;;;2.65;1.30;;;18.10;99.90;;;;;;5040548;28;20128;-94
2023/07/12 01:45:39;;;;;;;2.83;1.38;;;18.00;99.90;;;;;;5029684;28;20518;-95
2023/07/12 01:48:05;;;;;;;4.05;1.38;;;18.00;99.90;;;;;;5043019;28;20044;-94
2023/07/12 01:50:41;;;;;;;2.33;1.40;;;18.00;99.90;;;;;;5049795;28;20121;-95
2023/07/12 01:53:22;;;;;;;3.30;1.52;;;18.00;99.90;;;;;;5040503;28;20055;-94
2023/07/12 01:55:48;;;;;;;1.45;1.15;;;18.00;99.90;;;;;;5051130;28;20044;-94
2023/07/12 01:58:17;;;;;;;2.45;1.27;;;18.00;99.90;;;;;;5023911;28;20041;-94
2023/07/12 02:00:46;;;;;;;3.47;1.52;;;17.70;99.90;;;;;;5030517;28;20037;-94
2023/07/12 02:03:15;;;;;;;3.13;1.33;;;17.90;99.90;;;;;;5040375;28;20107;-95
2023/07/12 02:05:49;;;;;;;3.25;1.95;;;17.90;99.90;;;;;;5019970;28;20471;-95
2023/07/12 02:08:27;;;;;;;3.75;1.33;;;17.90;99.90;;;;;;5038522;28;20037;-95
2023/07/12 02:11:06;;;;;;;4.32;1.48;;;17.90;99.90;;;;;;5020622;28;20052;-94
2023/07/12 02:13:47;;;;;;;3.38;1.55;;;17.90;99.90;;;;;;5022815;28;20044;-94
2023/07/12 02:16:22;;;;;;;5.88;1.90;;;17.70;99.90;;;;;;5045167;28;20106;-94
2023/07/12 02:18:56;;;;;;;4.45;2.13;;;17.80;99.90;;;;;;5021037;28;20091;-94
2023/07/12 02:21:22;;;;;;;5.20;1.88;;;17.70;99.90;;;;;;5025292;28;20047;-95
2023/07/12 02:23:50;;;;;;;3.20;1.88;;;17.70;99.90;;;;;;5039189;28;20123;-94
2023/07/12 02:26:16;;;;;;;5.25;2.13;;;17.70;99.90;;;;;;5037642;28;20125;-95
2023/07/12 02:28:45;;;;;;;3.33;1.85;;;17.70;99.90;;;;;;5040212;28;20201;-94
2023/07/12 02:31:35;;;;;;;4.00;1.73;;;17.60;99.90;;;;;;5042611;28;20403;-93
2023/07/12 02:34:20;;;;;;;2.40;1.60;;;17.50;99.90;;;;;;5018527;28;20491;-94
2023/07/12 02:36:51;;;;;;;3.70;1.75;;;17.70;99.90;;;;;;5035781;28;20124;-95
2023/07/12 02:39:20;;;;;;;5.53;2.47;;;17.60;99.90;;;;;;5022469;28;20577;-95
2023/07/12 02:41:52;;;;;;;9.23;2.75;;;17.60;99.90;;;;;;5039873;28;20124;-95
2023/07/12 02:44:17;;;;;;;4.40;2.70;;;17.60;99.90;;;;;;5039920;28;20048;-95
2023/07/12 02:46:56;;;;;;;4.30;2.08;;;17.50;99.90;;;;;;5036726;28;20033;-94
2023/07/12 02:49:25;;;;;;;3.00;2.10;;;17.60;99.90;;;;;;5034042;28;20041;-95
2023/07/12 02:51:51;;;;;;;3.70;2.00;;;17.50;99.90;;;;;;5034569;28;20052;-95
2023/07/12 02:54:25;;;;;;;3.85;2.20;;;17.50;99.90;;;;;;5040551;28;20102;-94
2023/07/12 02:56:51;;;;;;;4.35;2.40;;;17.50;99.90;;;;;;5046158;28;20200;-94
2023/07/12 02:59:17;;;;;;;5.03;2.60;;;17.50;99.90;;;;;;5040189;28;20131;-94
2023/07/12 03:01:54;;;;;;;6.05;2.25;;;17.50;99.90;;;;;;5022578;28;20040;-95
2023/07/12 03:04:20;;;;;;;5.97;2.67;;;17.20;99.90;;;;;;5039401;28;20051;-96
2023/07/12 03:06:58;;;;;;;8.52;3.00;;;17.50;99.90;;;;;;5038691;28;20029;-95
2023/07/12 03:09:24;;;;;;;;;;;17.40;99.90;;;;;;5023316;28;20448;-94
2023/07/12 03:11:50;;;;;;;6.80;2.90;;;17.30;99.90;;;;;;5022020;28;19963;-94
2023/07/12 03:14:18;;;;;;;6.65;3.05;;;17.40;99.90;;;;;;5039923;28;20045;-94
2023/07/12 03:17:01;;;;;;;4.50;2.30;;;17.40;99.90;;;;;;5039852;28;20438;-93
2023/07/12 03:19:33;;;;;;;6.85;2.20;;;17.40;99.90;;;;;;5024273;28;20044;-93
2023/07/12 03:21:59;;;;;;;7.18;2.63;;;17.40;99.90;;;;;;5039401;28;20040;-94
2023/07/12 03:24:25;;;;;;;4.25;2.30;;;17.40;99.90;;;;;;5039265;28;20036;-94
2023/07/12 03:26:51;;;;;;;3.97;2.25;;;17.40;99.90;;;;;;5039968;28;20047;-94
2023/07/12 03:29:19;;;;;;;4.55;2.05;;;17.30;99.90;;;;;;5023021;28;20052;-94
2023/07/12 03:31:47;;;;;;;4.68;2.30;;;17.30;99.90;;;;;;5028891;28;20040;-94
2023/07/12 03:34:16;;;;;;;4.85;2.17;;;17.30;99.90;;;;;;5005271;28;20048;-94
2023/07/12 03:36:51;;;;;;;4.68;2.25;;;17.30;99.90;;;;;;5043313;28;20041;-94
2023/07/12 03:39:28;;;;;;;6.07;2.30;;;17.30;99.90;;;;;;5037382;28;20041;-95
2023/07/12 03:42:09;;;;;;;4.50;1.90;;;17.30;99.90;;;;;;5038613;28;20048;-94
2023/07/12 03:44:35;;;;;;;6.15;2.60;;;17.40;99.90;;;;;;5035064;28;20041;-94
2023/07/12 03:47:04;;;;;;;6.32;2.03;;;17.30;99.90;;;;;;5043891;28;20490;-94
2023/07/12 03:49:30;;;;;;;7.03;2.30;;;17.30;99.90;;;;;;5021209;28;20047;-94
2023/07/12 03:51:56;;;;;;;6.25;2.38;;;17.30;99.90;;;;;;5034029;28;20036;-94
2023/07/12 03:54:21;;;;;;;4.75;2.17;;;17.30;99.90;;;;;;5047452;28;20491;-94
2023/07/12 03:56:48;;;;;;;6.45;2.33;;;17.30;99.90;;;;;;5040436;28;20399;-94
2023/07/12 03:59:17;;;;;;;5.45;2.08;;;17.30;99.90;;;;;;5053406;28;20079;-94
2023/07/12 04:01:42;;;;;;;8.77;2.75;;;17.30;99.90;;;;;;5038307;28;20044;-94
2023/07/12 04:04:08;;;;;;;7.10;2.70;;;17.30;99.90;;;;;;5021714;28;20054;-93
2023/07/12 04:06:39;;;;;;;6.93;2.15;;;17.30;99.90;;;;;;5036343;28;20071;-93
2023/07/12 04:09:05;;;;;;;7.95;2.53;;;17.30;99.90;;;;;;5025227;28;20044;-93
2023/07/12 04:11:37;;;;;;;7.70;2.80;;;17.30;99.90;;;;;;5038701;28;20395;-95
2023/07/12 04:14:03;;;;;;;5.78;2.20;;;17.50;99.90;;;;;;5038085;28;20036;-94
2023/07/12 04:16:29;;;;;;;7.03;2.33;;;17.20;99.90;;;;;;5019779;28;20040;-93
2023/07/12 04:18:56;;;;;;;7.00;2.40;;;17.30;99.90;;;;;;5022055;28;20080;-93
2023/07/12 04:21:22;;;;;;;6.65;2.33;;;17.20;99.90;;;;;;5044794;28;20123;-94
2023/07/12 04:23:51;;;;;;;6.90;2.70;;;17.30;99.90;;;;;;5039157;28;20491;-94
2023/07/12 04:26:21;;;;;;;8.15;2.78;;;17.80;99.90;;;;;;5044823;28;20040;-94
2023/07/12 04:28:50;;;;;;;9.38;3.08;;;17.20;99.90;;;;;;5021628;28;20033;-94
2023/07/12 04:31:20;;;;;;;8.98;2.70;;;17.30;99.90;;;;;;5055281;28;20074;-94
2023/07/12 04:33:46;;;;;;;;;;;17.20;99.90;;;;;;5019830;28;20041;-94
2023/07/12 04:36:14;;;;;;;9.50;3.05;;;17.20;99.90;;;;;;5035840;28;19916;-94
2023/07/12 04:38:39;;;;;;;;;;;17.30;99.90;;;;;;5038658;28;20036;-91
2023/07/12 04:41:06;;;;;;;6.18;2.17;;;17.30;99.90;;;;;;5041541;28;19920;-86
2023/07/12 04:43:32;;;;;;;4.90;2.30;;;17.30;99.90;;;;;;5041353;28;20073;-87
2023/07/12 04:45:58;;;;;;;7.15;2.53;;;17.30;99.90;;;;;;5019117;28;20680;-86
2023/07/12 04:48:24;;;;;;;8.55;2.53;;;17.30;99.90;;;;;;5036061;28;20028;-87
2023/07/12 04:50:51;;;;;;;7.07;2.50;;;17.30;99.90;;;;;;5019580;28;20056;-87
2023/07/12 04:53:17;;;;;;;9.43;2.88;;;17.30;99.90;;;;;;5020794;28;20476;-87
2023/07/12 04:55:43;;;;;;;9.00;2.38;;;17.30;99.90;;;;;;5044269;28;20055;-87
2023/07/12 04:58:08;;;;;;;9.95;2.55;;;17.30;99.90;;;;;;5033400;28;20044;-90
2023/07/12 05:00:34;;;;;;;8.60;2.42;;;17.30;99.90;;;;;;5025340;28;20044;-87
2023/07/12 05:03:00;;;;;;;8.40;3.30;;;17.30;99.90;;;;;;5011144;28;20029;-90
2023/07/12 05:05:26;;;;;;;9.23;2.65;;;17.30;99.90;;;;;;4998060;28;20095;-86
2023/07/12 05:07:52;;;;;;;6.78;2.70;;;17.30;99.90;;;;;;5014691;28;20029;-86
2023/07/12 05:10:17;;;;;;;8.38;3.13;;;17.40;99.90;;;;;;5014986;28;20044;-86
2023/07/12 05:12:43;;;;;;;5.78;2.70;;;17.30;99.90;;;;;;5034572;28;20290;-88
2023/07/12 05:15:10;;;;;;;5.55;2.72;;;17.40;99.90;;;;;;5046473;28;20047;-88
2023/07/12 05:17:37;;;;;;;7.10;2.97;;;17.40;99.90;;;;;;5035500;28;20113;-88
2023/07/12 05:20:06;;;;;;;8.30;3.00;;;17.50;99.90;;;;;;5016833;28;20040;-86
2023/07/12 05:22:33;;;;;;;6.85;2.90;;;17.60;99.90;;;;;;5038909;28;20040;-91
2023/07/12 05:24:59;;;;;;;5.53;3.23;;;17.60;99.90;;;;;;5026071;28;20060;-88
2023/07/12 05:27:25;;;;;;;5.75;3.00;;;17.70;99.90;;;;;;5038506;28;20037;-89
2023/07/12 05:29:50;;;;;;;7.03;3.08;;;17.80;99.90;;;;;;5017778;28;20041;-86
2023/07/12 05:32:16;;;;;;;7.03;3.10;;;17.90;99.90;;;;;;5033690;28;20536;-88
2023/07/12 05:34:42;;;;;;;6.28;2.67;;;17.90;99.90;;;;;;5018755;28;20076;-88
2023/07/12 05:37:09;;;;;;;6.38;2.50;;;17.80;99.90;;;;;;4997634;28;20403;-88
2023/07/12 05:39:38;;;;;;;10.48;3.45;;;17.90;99.90;;;;;;5019304;28;20063;-89
2023/07/12 05:42:04;;;;;;;8.00;3.30;;;17.90;99.90;;;;;;5027495;28;20075;-89
2023/07/12 05:44:30;;;;;;;5.88;2.50;;;17.90;99.90;;;;;;5029373;28;20052;-89
2023/07/12 05:46:56;;;;;;;6.60;2.88;;;18.00;99.90;;;;;;5024810;28;20383;-88
2023/07/12 05:49:22;;;;;;;8.02;2.80;;;18.00;99.90;;;;;;5004100;28;20041;-91
2023/07/12 05:51:48;;;;;;;7.85;3.10;;;18.10;99.90;;;;;;5044737;28;20040;-90
2023/07/12 05:54:15;;;;;;;7.57;2.90;;;18.40;99.90;;;;;;5029183;28;20036;-91
2023/07/12 05:56:41;;;;;;;6.50;2.43;;;18.90;99.90;;;;;;5022253;28;20044;-92
2023/07/12 05:59:07;;;;;;;7.60;2.50;;;19.90;99.90;;;;;;5030558;28;20471;-91
2023/07/12 06:01:33;;;;;;;6.80;2.72;;;20.10;99.90;;;;;;5041024;28;20032;-92
2023/07/12 06:03:58;;;;;;;9.10;2.60;;;19.90;99.90;;;;;;5005978;28;20051;-91
2023/07/12 06:06:24;;;;;;;5.28;2.72;;;19.60;99.90;;;;;;5041071;28;20036;-92
2023/07/12 06:08:50;;;;;;;4.85;2.30;;;19.40;99.90;;;;;;5066212;28;20032;-91
2023/07/12 06:11:16;;;;;;;5.22;2.70;;;19.20;99.90;;;;;;5025518;28;20127;-90
2023/07/12 06:13:42;;;;;;;6.68;2.58;;;19.00;99.90;;;;;;5007591;28;20096;-89
2023/07/12 06:16:07;;;;;;;7.40;2.60;;;18.90;99.90;;;;;;5039301;28;20104;-90
2023/07/12 06:18:35;;;;;;;5.18;2.42;;;18.70;99.90;;;;;;5014348;28;20045;-90
2023/07/12 06:21:03;;;;;;;5.28;2.33;;;18.60;99.90;;;;;;5081453;28;20092;-90
2023/07/12 06:23:29;;;;;;;5.22;2.20;;;18.60;99.90;;;;;;5062921;28;20108;-89
2023/07/12 06:25:58;;;;;;;7.55;2.60;;;18.50;99.90;;;;;;5060415;28;20052;-90
2023/07/12 06:28:25;;;;;;;4.40;2.53;;;18.40;99.90;;;;;;5056239;28;20044;-89
2023/07/12 06:30:52;;;;;;;5.63;2.22;;;18.50;99.90;;;;;;5061610;28;20072;-90
2023/07/12 06:33:17;;;;;;;6.28;2.50;;;18.80;99.90;;;;;;5060919;28;20047;-89
2023/07/12 06:35:43;;;;;;;6.47;2.58;;;19.90;99.90;;;;;;5025695;28;20104;-91
2023/07/12 06:38:09;;;;;;;6.03;2.40;;;21.20;99.90;;;;;;5040704;28;20095;-91
2023/07/12 06:40:35;;;;;;;5.60;2.20;;;21.90;99.90;;;;;;5025146;28;20047;-91
2023/07/12 06:43:00;;;;;;;6.47;2.47;;;22.80;99.90;;;;;;5022960;28;20718;-90
2023/07/12 06:45:26;;;;;;;4.75;1.80;;;23.60;99.90;;;;;;5006724;28;20404;-92
2023/07/12 06:47:52;;;;;;;5.97;2.03;;;24.50;99.90;;;;;;5037580;28;20028;-92
2023/07/12 06:50:18;;;;;;;7.97;1.90;;;25.40;99.90;;;;;;5011021;28;20047;-91
2023/07/12 06:52:44;;;;;;;6.00;1.97;;;25.80;99.90;;;;;;5008009;28;20036;-91
2023/07/12 06:55:59;;;;;;;6.00;2.33;;;25.50;99.90;;;;;;5019883;28;20125;-90
2023/07/12 06:58:28;;;;;;;4.85;2.05;;;24.60;99.90;;;;;;5040200;28;20084;-91
2023/07/12 07:01:21;;;;;;;7.27;2.23;;;24.00;99.90;;;;;;5036861;28;20040;-91
2023/07/12 07:03:50;;;;;;;5.50;2.08;;;23.20;99.90;;;;;;5037494;28;20044;-91
2023/07/12 07:06:17;;;;;;;5.15;2.40;;;23.00;99.90;;;;;;5036827;28;20037;-92
2023/07/12 07:08:47;;;;;;;5.57;1.95;;;23.00;99.90;;;;;;5007542;28;20120;-92
2023/07/12 07:11:13;;;;;;;6.85;2.20;;;23.20;99.90;;;;;;5044701;28;20045;-92
2023/07/12 07:13:39;;;;;;;5.57;2.33;;;23.70;99.90;;;;;;5037722;28;20110;-92
2023/07/12 07:16:05;;;;;;;4.00;1.83;;;24.40;99.90;;;;;;5023339;28;20817;-90
2023/07/12 07:18:36;;;;;;;4.77;2.00;;;24.40;99.90;;;;;;5037565;28;20041;-91
2023/07/12 07:21:04;;;;;;;6.45;1.92;;;24.60;99.90;;;;;;5058541;28;20040;-93
2023/07/12 07:24:04;;;;;;;5.32;1.58;;;24.30;99.90;;;;;;5035702;28;20036;-93
2023/07/12 07:26:55;;;;;;;3.88;1.60;;;24.20;99.90;;;;;;5041919;28;20075;-93
2023/07/12 07:29:26;;;;;;;7.35;2.05;;;24.20;99.90;;;;;;5018048;28;20179;-91
2023/07/12 07:31:55;;;;;;;5.25;1.80;;;24.20;99.90;;;;;;5022652;28;20494;-92
2023/07/12 07:34:53;;;;;;;;;;;;;;;;;;;;;
2023/07/12 07:37:31;;;;;;;6.43;1.92;;;24.60;99.90;;;;;;5064749;28;20037;-93
2023/07/12 07:40:56;;;;;;;4.25;1.63;;;25.30;99.90;;;;;;5074924;28;20088;-91
2023/07/12 07:43:24;;;;;;;5.05;1.70;;;25.10;99.90;;;;;;5071206;28;20033;-93
2023/07/12 07:46:07;;;;;;;7.00;2.15;;;24.10;99.90;;;;;;5064673;28;20052;-91
2023/07/12 07:48:33;;;;;;;7.75;1.88;;;23.40;99.90;;;;;;5037383;28;20036;-90
2023/07/12 07:50:59;;;;;;;5.90;1.80;;;22.90;99.90;;;;;;5018199;28;20045;-92
2023/07/12 07:53:25;;;;;;;4.27;1.77;;;22.40;99.90;;;;;;5036364;28;20029;-90
2023/07/12 07:55:52;;;;;;;5.63;1.80;;;22.10;99.90;;;;;;5021451;28;20102;-88
2023/07/12 07:58:17;;;;;;;6.30;2.10;;;21.80;99.90;;;;;;5030942;28;20725;-90
2023/07/12 08:00:44;;;;;;;4.20;1.58;;;21.70;99.90;;;;;;5013103;28;20078;-89
2023/07/12 08:03:11;;;;;;;5.07;1.55;;;21.60;99.90;;;;;;5003334;28;20099;-89
2023/07/12 08:05:37;;;;;;;5.18;1.83;;;21.60;99.90;;;;;;5013487;28;20157;-89
2023/07/12 08:08:04;;;;;;;6.28;1.40;;;21.50;99.90;;;;;;5036405;28;20033;-90
2023/07/12 08:10:30;;;;;;;5.05;1.92;;;21.40;99.90;;;;;;5031009;28;20094;-90
2023/07/12 08:12:57;;;;;;;3.67;1.33;;;21.20;99.90;;;;;;5033321;28;20488;-90
2023/07/12 08:15:23;;;;;;;;;;;21.00;99.90;;;;;;5021490;28;20037;-90
2023/07/12 08:17:48;;;;;;;5.50;2.00;;;20.70;99.90;;;;;;5033307;28;20259;-89
2023/07/12 08:20:14;;;;;;;4.30;1.10;;;20.60;99.90;;;;;;5001826;28;20032;-90
2023/07/12 08:22:42;;;;;;;3.60;1.30;;;20.50;99.90;;;;;;5018816;28;20040;-90
2023/07/12 08:25:08;;;;;;;3.67;1.10;;;20.30;99.90;;;;;;5032687;28;20041;-90
2023/07/12 08:27:34;;;;;;;3.88;1.05;;;20.30;99.90;;;;;;5032309;28;20075;-90
2023/07/12 08:30:00;;;;;;;3.88;1.40;;;20.20;99.90;;;;;;5020343;28;20028;-92
2023/07/12 08:32:30;;;;;;;5.95;1.30;;;20.20;99.90;;;;;;5036245;28;20074;-90
2023/07/12 08:34:57;;;;;;;3.28;1.30;;;20.20;99.90;;;;;;5036156;28;20037;-89
2023/07/12 08:37:24;;;;;;;3.05;0.90;;;20.00;99.90;;;;;;5025615;28;20041;-89
2023/07/12 08:39:50;;;;;;;3.13;1.00;;;19.90;99.90;;;;;;5021339;28;20100;-91
2023/07/12 08:42:38;;;;;;;3.10;1.00;;;19.90;99.90;;;;;;5038126;28;20041;-90
2023/07/12 08:45:12;;;;;;;2.57;1.10;;;19.70;99.90;;;;;;5031874;28;20046;-90
2023/07/12 08:47:40;;;;;;;2.25;0.90;;;19.60;99.90;;;;;;5037397;28;20090;-89
2023/07/12 08:50:13;;;;;;;4.47;1.23;;;19.70;99.90;;;;;;5045108;28;20038;-90
2023/07/12 08:52:40;;;;;;;2.63;0.95;;;20.40;99.90;;;;;;5033063;28;20054;-89
2023/07/12 08:55:22;;;;;;;3.20;1.50;;;21.20;99.90;;;;;;5052384;28;20044;-90
2023/07/12 08:58:03;;;;;;;3.47;1.10;;;21.30;99.90;;;;;;5034280;28;20066;-90
2023/07/12 09:00:32;;;;;;;2.70;0.95;;;21.10;99.90;;;;;;5022598;28;20059;-90
2023/07/12 09:02:59;;;;;;;6.00;1.50;;;21.00;99.90;;;;;;5017926;28;20072;-92
2023/07/12 09:05:25;;;;;;;3.05;1.70;;;20.80;99.90;;;;;;5019568;28;20045;-91
2023/07/12 09:08:04;;;;;;;3.35;1.25;;;20.70;99.90;;;;;;4996359;28;20061;-91
2023/07/12 09:10:39;;;;;;;2.72;1.20;;;20.60;99.90;;;;;;5011060;28;20037;-92
2023/07/12 09:13:06;;;;;;;4.57;1.30;;;20.70;99.90;;;;;;5028499;28;20037;-91
2023/07/12 09:15:52;;;;;;;4.32;1.70;;;20.80;99.90;;;;;;4988138;28;20060;-93
2023/07/12 09:18:34;;;;;;;3.97;1.50;;;20.70;99.90;;;;;;5016875;28;20041;-91
2023/07/12 09:21:16;;;;;;;6.57;1.60;;;20.70;99.90;;;;;;5038913;28;20438;-93
2023/07/12 09:23:44;;;;;;;4.47;1.30;;;20.90;99.90;;;;;;5036863;28;20491;-92
2023/07/12 09:26:31;;;;;;;2.67;1.40;;;21.50;99.90;;;;;;5017791;28;20041;-92
2023/07/12 09:29:06;;;;;;;3.47;1.27;;;22.10;99.90;;;;;;5002719;28;21226;-90
2023/07/12 09:31:35;;;;;;;4.03;1.30;;;22.40;99.90;;;;;;5017796;28;20038;-90
2023/07/12 09:34:05;;;;;;;5.32;1.20;;;22.60;99.90;;;;;;5022235;28;20155;-92
2023/07/12 09:36:35;;;;;;;4.47;1.20;;;22.60;99.90;;;;;;5015781;28;20056;-92
2023/07/12 09:39:05;;;;;;;2.90;1.15;;;22.50;99.90;;;;;;5004285;28;20045;-91
2023/07/12 09:41:31;;;;;;;3.72;1.05;;;22.30;99.90;;;;;;5013953;28;20033;-90
2023/07/12 09:43:59;;;;;;;2.55;1.02;;;22.00;99.90;;;;;;5019908;28;20045;-90
2023/07/12 09:46:40;;;;;;;2.67;1.27;;;21.80;99.90;;;;;;5015123;28;20086;-91
2023/07/12 09:49:11;;;;;;;3.38;1.13;;;21.60;99.90;;;;;;5039895;28;20091;-91
2023/07/12 09:51:47;;;;;;;5.00;1.20;;;21.40;99.90;;;;;;5033308;28;20047;-92
2023/07/12 09:54:51;;;;;;;4.32;1.00;;;21.40;99.90;;;;;;5053798;28;20094;-93
2023/07/12 09:57:39;;;;;;;3.75;1.00;;;21.70;99.90;;;;;;5015611;28;20671;-91
2023/07/12 10:00:11;;;;;;;2.95;1.17;;;22.20;99.90;;;;;;5035515;28;20044;-92
2023/07/12 10:02:56;;;;;;;3.50;1.33;;;22.40;99.90;;;;;;5035695;28;20505;-89
2023/07/12 10:05:23;;;;;;;3.05;0.82;;;22.70;99.90;;;;;;5032781;28;20044;-92
2023/07/12 10:07:58;;;;;;;3.78;1.55;;;22.90;99.90;;;;;;5016346;28;20094;-90
2023/07/12 10:10:51;;;;;;;3.50;1.08;;;23.10;99.90;;;;;;5055552;28;20486;-93
2023/07/12 10:13:36;;;;;;;3.97;1.30;;;23.00;99.90;;;;;;5039672;28;20029;-92
2023/07/12 10:16:06;;;;;;;3.38;1.02;;;22.70;99.90;;;;;;5041208;28;20040;-91
2023/07/12 10:18:36;;;;;;;3.55;1.05;;;22.40;99.90;;;;;;5040326;28;20036;-94
2023/07/12 10:21:02;;;;;;;2.20;0.85;;;22.00;99.90;;;;;;5040851;28;20037;-91
2023/07/12 10:23:46;;;;;;;2.23;0.90;;;21.80;99.90;;;;;;5020595;28;20040;-89
2023/07/12 10:26:15;;;;;;;2.67;0.80;;;21.70;99.90;;;;;;5039858;28;20119;-88
2023/07/12 10:28:48;;;;;;;2.92;0.93;;;21.70;99.90;;;;;;5022908;28;20068;-92
2023/07/12 10:31:45;;;;;;;3.10;1.30;;;21.80;99.90;;;;;;5040385;28;20048;-91
2023/07/12 10:34:31;;;;;;;1.83;0.98;;;21.80;99.90;;;;;;5056770;28;20052;-92
2023/07/12 10:37:11;;;;;;;4.03;0.80;;;21.70;99.90;;;;;;5051734;28;20052;-90
2023/07/12 10:39:37;;;;;;;2.10;0.80;;;21.40;99.90;;;;;;5036278;28;20040;-90
2023/07/12 10:42:37;;;;;;;2.88;0.75;;;21.20;99.90;;;;;;5027984;28;20041;-91
2023/07/12 10:45:05;;;;;;;2.70;0.85;;;21.30;99.90;;;;;;5046205;28;20503;-91
2023/07/12 10:47:40;;;;;;;1.25;0.50;;;21.60;99.90;;;;;;5026016;28;20047;-92
2023/07/12 10:50:37;;;;;;;1.27;0.60;;;21.90;99.90;;;;;;5048138;28;20040;-93
2023/07/12 10:53:25;;;;;;;2.70;0.90;;;22.10;99.90;;;;;;5034556;28;20037;-94
2023/07/12 10:56:17;;;;;;;2.75;0.70;;;22.20;99.90;;;;;;5050546;28;20048;-92
2023/07/12 10:58:58;;;;;;;2.72;0.68;;;22.10;99.90;;;;;;5042188;28;20096;-91
2023/07/12 11:01:42;;;;;;;2.58;0.63;;;22.00;99.90;;;;;;5037417;28;20123;-91
2023/07/12 11:04:09;;;;;;;1.15;0.40;;;22.10;99.90;;;;;;5038443;28;20041;-89
2023/07/12 11:06:40;;;;;;;1.50;0.50;;;22.30;99.90;;;;;;5040254;28;20483;-93
2023/07/12 11:09:10;;;;;;;2.08;0.52;;;22.40;99.90;;;;;;5041473;28;20033;-91
2023/07/12 11:11:44;;;;;;;1.85;0.60;;;22.50;99.90;;;;;;5020632;28;20040;-91
2023/07/12 11:14:39;;;;;;;2.92;0.90;;;22.70;99.90;;;;;;5031397;28;20047;-92
2023/07/12 11:17:09;;;;;;;2.53;0.68;;;22.70;99.90;;;;;;5055572;28;20041;-90
2023/07/12 11:19:43;;;;;;;1.90;0.75;;;22.70;99.90;;;;;;5058601;28;20020;-93
2023/07/12 11:22:18;;;;;;;1.73;0.73;;;22.70;99.90;;;;;;5058194;28;20040;-94
2023/07/12 11:24:52;;;;;;;1.55;0.70;;;22.80;99.90;;;;;;5075292;28;20036;-91
2023/07/12 11:27:39;;;;;;;2.85;0.52;;;22.80;99.90;;;;;;5067343;28;20052;-89
2023/07/12 11:30:37;;;;;;;1.27;0.40;;;22.90;99.90;;;;;;5047143;28;20041;-89
2023/07/12 11:33:26;;;;;;;3.07;0.50;;;22.70;99.90;;;;;;5032117;28;20037;-92
2023/07/12 11:36:13;;;;;;;1.73;0.47;;;22.70;99.90;;;;;;5036899;28;20052;-90
2023/07/12 11:38:43;;;;;;;2.40;0.80;;;22.70;99.90;;;;;;5039280;28;20070;-92
2023/07/12 11:41:23;;;;;;;1.45;0.38;;;22.80;99.90;;;;;;5040097;28;20045;-91
2023/07/12 11:44:03;;;;;;;3.10;0.60;;;22.90;99.90;;;;;;5037578;28;20048;-90
2023/07/12 11:46:38;;;;;;;4.13;0.60;;;22.80;99.90;;;;;;5044243;28;20399;-89
2023/07/12 11:49:28;;;;;;;1.80;0.80;;;22.60;99.90;;;;;;5035097;28;20032;-90
2023/07/12 11:51:56;;;;;;;1.77;0.60;;;22.40;99.90;;;;;;5032182;28;20055;-89
2023/07/12 11:54:38;;;;;;;1.17;0.35;;;22.40;99.90;;;;;;5041767;28;20067;-90
2023/07/12 11:57:08;;;;;;;1.60;0.60;;;22.50;99.90;;;;;;5038833;28;20243;-90
2023/07/12 11:59:39;;;;;;;1.25;0.43;;;22.50;99.90;;;;;;5033764;28;20045;-91
2023/07/12 12:02:15;;;;;;;2.10;0.52;;;22.50;99.90;;;;;;5052215;28;20044;-89
2023/07/12 12:04:40;;;;;;;3.83;0.70;;;22.70;99.90;;;;;;5053850;28;20054;-89
2023/07/12 12:07:30;;;;;;;1.30;0.50;;;22.70;99.90;;;;;;5018583;28;20112;-91
2023/07/12 12:09:57;;;;;;;2.17;0.55;;;22.70;99.90;;;;;;5030508;28;20123;-91
2023/07/12 12:12:27;;;;;;;;;;;22.50;99.90;;;;;;5022948;28;20052;-90
2023/07/12 12:14:53;;;;;;;1.58;0.50;;;22.40;99.90;;;;;;5041033;28;19959;-90
2023/07/12 12:17:35;;;;;;;7.22;1.10;;;22.40;99.90;;;;;;5029609;28;20094;-91
2023/07/12 12:20:17;;;;;;;2.42;0.63;;;22.40;99.90;;;;;;5037504;28;20261;-91
2023/07/12 12:23:13;;;;;;;3.35;0.40;;;22.40;99.90;;;;;;5048863;28;20107;-91
2023/07/12 12:25:50;;;;;;;2.65;0.50;;;22.40;99.90;;;;;;5037653;28;20060;-91
2023/07/12 12:28:31;;;;;;;1.25;0.40;;;22.20;99.90;;;;;;5031450;28;20037;-92
2023/07/12 12:31:05;;;;;;;2.00;0.40;;;22.20;99.90;;;;;;5026923;28;20044;-92
2023/07/12 12:33:31;;;;;;;1.90;0.50;;;22.20;99.90;;;;;;5037712;28;20515;-91
2023/07/12 12:36:01;;;;;;;0.47;0.30;;;22.30;99.90;;;;;;5019795;28;20131;-90
2023/07/12 12:38:35;;;;;;;1.67;0.30;;;22.30;99.90;;;;;;5035723;28;20045;-93
2023/07/12 12:41:15;;;;;;;1.95;0.30;;;22.40;99.90;;;;;;5040562;28;20498;-92
2023/07/12 12:44:14;;;;;;;0.98;0.30;;;22.40;99.90;;;;;;5051083;28;20768;-91
2023/07/12 12:46:43;;;;;;;1.48;0.40;;;22.30;99.90;;;;;;5038117;28;20663;-91
2023/07/12 12:49:33;;;;;;;1.83;0.40;;;22.30;99.90;;;;;;5020729;28;20040;-91
2023/07/12 12:52:32;;;;;;;1.65;0.30;;;22.10;99.90;;;;;;5033065;28;20050;-89
2023/07/12 13:13:57;;;;;;;2.92;0.43;;;21.60;99.90;;;;;;5111287;22;20044;-39
2023/07/12 13:16:23;;;;;;;1.40;0.32;;;21.60;99.90;;;;;;5110423;27;20055;-39
2023/07/12 13:18:57;;;;;;;1.65;0.40;;;21.60;99.90;;;;;;5113276;27;20078;-39
2023/07/12 13:21:27;;;;;;;1.73;0.30;;;21.70;99.90;;;;;;5109518;27;20088;-38
2023/07/12 13:23:59;;;;;;;1.02;0.30;;;21.80;99.90;;;;;;5096866;27;20039;-38
2023/07/12 13:26:49;;;;;;;1.15;0.30;;;21.70;99.90;;;;;;5093167;28;20532;-38
2023/07/12 13:29:20;;;;;;;0.75;0.25;;;21.70;99.90;;;;;;5071326;27;20093;-38
2023/07/12 13:32:16;;;;;;;2.17;0.30;;;21.60;99.90;;;;;;5087840;27;20037;-38
2023/07/12 13:35:50;;;;;;;1.00;0.30;;;21.60;99.90;;;;;;5101675;28;20137;-38
2023/07/12 13:59:30;;;;;;;1.17;0.30;;;21.50;99.90;;;;;;5044798;28;20052;-93
2023/07/12 14:01:56;;;;;;;2.47;0.30;;;21.40;99.90;;;;;;4992699;28;20476;-94
2023/07/12 14:04:22;;;;;;;0.52;0.20;;;21.40;99.90;;;;;;4990716;28;20068;-93